KLVK

Livermore Municipal Airport

Livermore, California, USA
METAR KLVK 212253Z 28015KT 10SM CLR 22/13 A2993 RMK AO2 SLP133 T02220133
Observed Flight Rules
Aug-21 @ 22:53 UTC (54 minutes ago) Visual Flight Rules
Wind Visibility Clouds
280° at 15 knots 10 miles
  • Clear skies
Temperatures Readings
Current 22°C / 72°F
Dewpoint 13°C / 55°F
Humidity 57%
Altimeter 29.93" Hg
Pressure 1013.3 hPa
Elevation 117
METAR KLVK 212253Z 28015KT 10SM CLR 22/13 A2993 RMK AO2 SLP133 T02220133
Observed Flight Rules
Aug-21 @ 22:53 UTC
(54 minutes ago)
VFR
Wind Visibility
280° at 15 knots 10 miles
Clouds
  • Clear skies
Temperature Dewpoint
22°C / 72°F 13°C / 55°F
Humidity Altimeter Pressure
57% 29.93" Hg 1013.3 hPa